sensor_id;sensor_type;location;lat;lon;timestamp;temperature;humidity
18384;DHT22;9318;48.644;9.456;2022-07-29T00:02:01;20.70;99.90
18384;DHT22;9318;48.644;9.456;2022-07-29T00:04:28;20.70;99.90
18384;DHT22;9318;48.644;9.456;2022-07-29T00:06:56;20.70;99.90
18384;DHT22;9318;48.644;9.456;2022-07-29T00:09:23;20.70;99.90
18384;DHT22;9318;48.644;9.456;2022-07-29T00:11:50;20.70;99.90
18384;DHT22;9318;48.644;9.456;2022-07-29T00:14:17;20.70;99.90
18384;DHT22;9318;48.644;9.456;2022-07-29T00:16:46;20.70;99.90
18384;DHT22;9318;48.644;9.456;2022-07-29T00:19:13;20.80;99.90
18384;DHT22;9318;48.644;9.456;2022-07-29T00:21:40;20.80;99.90
18384;DHT22;9318;48.644;9.456;2022-07-29T00:24:08;20.80;99.90
18384;DHT22;9318;48.644;9.456;2022-07-29T00:26:35;20.80;99.90
18384;DHT22;9318;48.644;9.456;2022-07-29T00:29:04;20.80;99.90
18384;DHT22;9318;48.644;9.456;2022-07-29T00:31:31;20.80;99.90
18384;DHT22;9318;48.644;9.456;2022-07-29T00:34:00;20.70;99.90
18384;DHT22;9318;48.644;9.456;2022-07-29T00:36:28;20.70;99.90
18384;DHT22;9318;48.644;9.456;2022-07-29T00:38:54;20.70;99.90
18384;DHT22;9318;48.644;9.456;2022-07-29T00:41:21;20.70;99.90
18384;DHT22;9318;48.644;9.456;2022-07-29T00:43:49;20.70;99.90
18384;DHT22;9318;48.644;9.456;2022-07-29T00:46:16;20.70;99.90
18384;DHT22;9318;48.644;9.456;2022-07-29T00:48:43;20.70;99.90
18384;DHT22;9318;48.644;9.456;2022-07-29T00:51:12;20.70;99.90
18384;DHT22;9318;48.644;9.456;2022-07-29T00:53:39;20.60;99.90
18384;DHT22;9318;48.644;9.456;2022-07-29T00:56:08;20.60;99.90
18384;DHT22;9318;48.644;9.456;2022-07-29T00:58:35;20.60;99.90
18384;DHT22;9318;48.644;9.456;2022-07-29T01:01:02;20.60;99.90
18384;DHT22;9318;48.644;9.456;2022-07-29T01:03:30;20.50;99.90
18384;DHT22;9318;48.644;9.456;2022-07-29T01:05:57;20.50;99.90
18384;DHT22;9318;48.644;9.456;2022-07-29T01:08:26;20.50;99.90
18384;DHT22;9318;48.644;9.456;2022-07-29T01:10:54;20.50;99.90
18384;DHT22;9318;48.644;9.456;2022-07-29T01:13:22;20.50;99.90
18384;DHT22;9318;48.644;9.456;2022-07-29T01:15:57;20.50;99.90
18384;DHT22;9318;48.644;9.456;2022-07-29T01:18:31;20.50;99.90
18384;DHT22;9318;48.644;9.456;2022-07-29T01:21:31;20.50;99.90
18384;DHT22;9318;48.644;9.456;2022-07-29T01:24:14;20.40;99.90
18384;DHT22;9318;48.644;9.456;2022-07-29T01:26:49;20.40;99.90
18384;DHT22;9318;48.644;9.456;2022-07-29T01:29:25;20.30;99.90
18384;DHT22;9318;48.644;9.456;2022-07-29T01:31:57;20.30;99.90
18384;DHT22;9318;48.644;9.456;2022-07-29T01:34:30;20.20;99.90
18384;DHT22;9318;48.644;9.456;2022-07-29T01:37:06;20.20;99.90
18384;DHT22;9318;48.644;9.456;2022-07-29T01:39:36;20.20;99.90
18384;DHT22;9318;48.644;9.456;2022-07-29T01:42:10;20.10;99.90
18384;DHT22;9318;48.644;9.456;2022-07-29T01:44:47;20.10;99.90
18384;DHT22;9318;48.644;9.456;2022-07-29T01:47:20;20.00;99.90
18384;DHT22;9318;48.644;9.456;2022-07-29T01:49:52;19.90;99.90
18384;DHT22;9318;48.644;9.456;2022-07-29T01:52:25;19.90;99.90
18384;DHT22;9318;48.644;9.456;2022-07-29T01:54:56;19.90;99.90
18384;DHT22;9318;48.644;9.456;2022-07-29T01:57:27;19.90;99.90
18384;DHT22;9318;48.644;9.456;2022-07-29T01:59:58;19.90;99.90
18384;DHT22;9318;48.644;9.456;2022-07-29T02:02:27;19.90;99.90
18384;DHT22;9318;48.644;9.456;2022-07-29T02:04:56;19.90;99.90
18384;DHT22;9318;48.644;9.456;2022-07-29T02:07:27;19.90;99.90
18384;DHT22;9318;48.644;9.456;2022-07-29T02:09:56;19.90;99.90
18384;DHT22;9318;48.644;9.456;2022-07-29T02:12:25;19.90;99.90
18384;DHT22;9318;48.644;9.456;2022-07-29T02:14:55;19.90;99.90
18384;DHT22;9318;48.644;9.456;2022-07-29T02:17:27;19.90;99.90
18384;DHT22;9318;48.644;9.456;2022-07-29T02:19:59;19.90;99.90
18384;DHT22;9318;48.644;9.456;2022-07-29T02:22:28;19.90;99.90
18384;DHT22;9318;48.644;9.456;2022-07-29T02:24:56;19.90;99.90
18384;DHT22;9318;48.644;9.456;2022-07-29T02:27:25;19.90;99.90
18384;DHT22;9318;48.644;9.456;2022-07-29T02:29:56;19.90;99.90
18384;DHT22;9318;48.644;9.456;2022-07-29T02:32:26;19.80;99.90
18384;DHT22;9318;48.644;9.456;2022-07-29T02:34:54;19.80;99.90
18384;DHT22;9318;48.644;9.456;2022-07-29T02:37:23;19.70;99.90
18384;DHT22;9318;48.644;9.456;2022-07-29T02:39:52;19.60;99.90
18384;DHT22;9318;48.644;9.456;2022-07-29T02:42:23;19.60;99.90
18384;DHT22;9318;48.644;9.456;2022-07-29T02:44:51;19.60;99.90
18384;DHT22;9318;48.644;9.456;2022-07-29T02:47:23;19.60;99.90
18384;DHT22;9318;48.644;9.456;2022-07-29T02:49:55;19.60;99.90
18384;DHT22;9318;48.644;9.456;2022-07-29T02:52:27;19.60;99.90
18384;DHT22;9318;48.644;9.456;2022-07-29T02:55:00;19.60;99.90
18384;DHT22;9318;48.644;9.456;2022-07-29T02:57:32;19.60;99.90
18384;DHT22;9318;48.644;9.456;2022-07-29T03:00:06;19.50;99.90
18384;DHT22;9318;48.644;9.456;2022-07-29T03:02:38;19.50;99.90
18384;DHT22;9318;48.644;9.456;2022-07-29T03:05:07;19.50;99.90
18384;DHT22;9318;48.644;9.456;2022-07-29T03:07:35;19.50;99.90
18384;DHT22;9318;48.644;9.456;2022-07-29T03:10:05;19.50;99.90
18384;DHT22;9318;48.644;9.456;2022-07-29T03:12:34;19.50;99.90
18384;DHT22;9318;48.644;9.456;2022-07-29T03:15:02;19.50;99.90
18384;DHT22;9318;48.644;9.456;2022-07-29T03:17:31;19.60;99.90
18384;DHT22;9318;48.644;9.456;2022-07-29T03:20:00;19.60;99.90
18384;DHT22;9318;48.644;9.456;2022-07-29T03:22:27;19.60;99.90
18384;DHT22;9318;48.644;9.456;2022-07-29T03:24:55;19.70;99.90
18384;DHT22;9318;48.644;9.456;2022-07-29T03:27:22;19.60;99.90
18384;DHT22;9318;48.644;9.456;2022-07-29T03:29:49;19.60;99.90
18384;DHT22;9318;48.644;9.456;2022-07-29T03:32:16;19.60;99.90
18384;DHT22;9318;48.644;9.456;2022-07-29T03:34:44;19.60;99.90
18384;DHT22;9318;48.644;9.456;2022-07-29T03:37:13;19.60;99.90
18384;DHT22;9318;48.644;9.456;2022-07-29T03:39:41;19.50;99.90
18384;DHT22;9318;48.644;9.456;2022-07-29T03:42:13;19.50;99.90
18384;DHT22;9318;48.644;9.456;2022-07-29T03:44:44;19.50;99.90
18384;DHT22;9318;48.644;9.456;2022-07-29T03:47:13;19.50;99.90
18384;DHT22;9318;48.644;9.456;2022-07-29T03:49:42;19.50;99.90
18384;DHT22;9318;48.644;9.456;2022-07-29T03:52:12;19.50;99.90
18384;DHT22;9318;48.644;9.456;2022-07-29T03:54:40;19.40;99.90
18384;DHT22;9318;48.644;9.456;2022-07-29T03:57:10;19.40;99.90
18384;DHT22;9318;48.644;9.456;2022-07-29T03:59:39;19.40;99.90
18384;DHT22;9318;48.644;9.456;2022-07-29T04:02:09;19.30;99.90
18384;DHT22;9318;48.644;9.456;2022-07-29T04:04:38;19.30;99.90
18384;DHT22;9318;48.644;9.456;2022-07-29T04:07:05;19.10;99.90
18384;DHT22;9318;48.644;9.456;2022-07-29T04:09:34;19.10;99.90
18384;DHT22;9318;48.644;9.456;2022-07-29T04:12:01;19.10;99.90
18384;DHT22;9318;48.644;9.456;2022-07-29T04:14:28;19.10;99.90
18384;DHT22;9318;48.644;9.456;2022-07-29T04:16:55;19.10;99.90
18384;DHT22;9318;48.644;9.456;2022-07-29T04:19:22;19.10;99.90
18384;DHT22;9318;48.644;9.456;2022-07-29T04:21:50;19.00;99.90
18384;DHT22;9318;48.644;9.456;2022-07-29T04:24:17;19.00;99.90
18384;DHT22;9318;48.644;9.456;2022-07-29T04:26:47;19.10;99.90
18384;DHT22;9318;48.644;9.456;2022-07-29T04:29:14;19.10;99.90
18384;DHT22;9318;48.644;9.456;2022-07-29T04:31:42;19.20;99.90
18384;DHT22;9318;48.644;9.456;2022-07-29T04:34:09;19.30;99.90
18384;DHT22;9318;48.644;9.456;2022-07-29T04:36:37;19.30;99.90
18384;DHT22;9318;48.644;9.456;2022-07-29T04:39:04;19.40;99.90
18384;DHT22;9318;48.644;9.456;2022-07-29T04:41:32;19.40;99.90
18384;DHT22;9318;48.644;9.456;2022-07-29T04:44:00;19.50;99.90
18384;DHT22;9318;48.644;9.456;2022-07-29T04:46:31;19.50;99.90
18384;DHT22;9318;48.644;9.456;2022-07-29T04:49:00;19.60;99.90
18384;DHT22;9318;48.644;9.456;2022-07-29T04:51:29;19.60;99.90
18384;DHT22;9318;48.644;9.456;2022-07-29T04:53:56;19.60;99.90
18384;DHT22;9318;48.644;9.456;2022-07-29T04:56:24;19.70;99.90
18384;DHT22;9318;48.644;9.456;2022-07-29T04:58:52;19.70;99.90
18384;DHT22;9318;48.644;9.456;2022-07-29T05:01:21;19.70;99.90
18384;DHT22;9318;48.644;9.456;2022-07-29T05:03:48;19.70;99.90
18384;DHT22;9318;48.644;9.456;2022-07-29T05:06:16;19.60;99.90
18384;DHT22;9318;48.644;9.456;2022-07-29T05:08:43;19.60;99.90
18384;DHT22;9318;48.644;9.456;2022-07-29T05:11:10;19.60;99.90
18384;DHT22;9318;48.644;9.456;2022-07-29T05:13:37;19.60;99.90
18384;DHT22;9318;48.644;9.456;2022-07-29T05:16:05;19.60;99.90
18384;DHT22;9318;48.644;9.456;2022-07-29T05:18:33;19.60;99.90
18384;DHT22;9318;48.644;9.456;2022-07-29T05:21:01;19.60;99.90
18384;DHT22;9318;48.644;9.456;2022-07-29T05:23:28;19.60;99.90
18384;DHT22;9318;48.644;9.456;2022-07-29T05:25:55;19.50;99.90
18384;DHT22;9318;48.644;9.456;2022-07-29T05:28:22;19.60;99.90
18384;DHT22;9318;48.644;9.456;2022-07-29T05:30:50;19.60;99.90
18384;DHT22;9318;48.644;9.456;2022-07-29T05:33:17;19.70;99.90
18384;DHT22;9318;48.644;9.456;2022-07-29T05:35:45;19.70;99.90
18384;DHT22;9318;48.644;9.456;2022-07-29T05:38:13;19.70;99.90
18384;DHT22;9318;48.644;9.456;2022-07-29T05:40:40;19.80;99.90
18384;DHT22;9318;48.644;9.456;2022-07-29T05:43:07;19.80;99.90
18384;DHT22;9318;48.644;9.456;2022-07-29T05:45:35;19.70;99.90
18384;DHT22;9318;48.644;9.456;2022-07-29T05:48:02;19.70;99.90
18384;DHT22;9318;48.644;9.456;2022-07-29T05:50:30;19.80;99.90
18384;DHT22;9318;48.644;9.456;2022-07-29T05:52:59;19.80;99.90
18384;DHT22;9318;48.644;9.456;2022-07-29T05:55:26;19.80;99.90
18384;DHT22;9318;48.644;9.456;2022-07-29T05:57:53;19.90;99.90
18384;DHT22;9318;48.644;9.456;2022-07-29T06:00:20;20.00;99.90
18384;DHT22;9318;48.644;9.456;2022-07-29T06:02:48;20.10;99.90
18384;DHT22;9318;48.644;9.456;2022-07-29T06:05:16;20.10;99.90
18384;DHT22;9318;48.644;9.456;2022-07-29T06:07:43;20.20;99.90
18384;DHT22;9318;48.644;9.456;2022-07-29T06:10:11;20.40;99.90
18384;DHT22;9318;48.644;9.456;2022-07-29T06:12:39;20.40;99.90
18384;DHT22;9318;48.644;9.456;2022-07-29T06:15:07;20.40;99.90
18384;DHT22;9318;48.644;9.456;2022-07-29T06:17:34;20.40;99.90
18384;DHT22;9318;48.644;9.456;2022-07-29T06:20:02;20.50;99.90
18384;DHT22;9318;48.644;9.456;2022-07-29T06:22:29;20.60;99.90
18384;DHT22;9318;48.644;9.456;2022-07-29T06:24:56;20.70;99.90
18384;DHT22;9318;48.644;9.456;2022-07-29T06:27:25;20.70;99.90
18384;DHT22;9318;48.644;9.456;2022-07-29T06:29:52;20.80;99.90
18384;DHT22;9318;48.644;9.456;2022-07-29T06:32:20;20.70;99.90
18384;DHT22;9318;48.644;9.456;2022-07-29T06:34:47;20.80;99.90
18384;DHT22;9318;48.644;9.456;2022-07-29T06:37:14;20.80;99.90
18384;DHT22;9318;48.644;9.456;2022-07-29T06:39:43;20.90;99.90
18384;DHT22;9318;48.644;9.456;2022-07-29T06:42:10;20.90;99.90
18384;DHT22;9318;48.644;9.456;2022-07-29T06:44:39;21.00;99.90
18384;DHT22;9318;48.644;9.456;2022-07-29T06:47:06;21.00;99.90
18384;DHT22;9318;48.644;9.456;2022-07-29T06:49:33;21.00;99.90
18384;DHT22;9318;48.644;9.456;2022-07-29T06:52:01;21.10;99.90
18384;DHT22;9318;48.644;9.456;2022-07-29T06:54:28;21.10;99.90
18384;DHT22;9318;48.644;9.456;2022-07-29T06:56:55;21.20;99.90
18384;DHT22;9318;48.644;9.456;2022-07-29T06:59:22;21.20;99.90
18384;DHT22;9318;48.644;9.456;2022-07-29T07:01:51;21.30;99.90
18384;DHT22;9318;48.644;9.456;2022-07-29T07:04:18;21.40;99.90
18384;DHT22;9318;48.644;9.456;2022-07-29T07:06:46;21.50;99.90
18384;DHT22;9318;48.644;9.456;2022-07-29T07:09:13;21.70;99.90
18384;DHT22;9318;48.644;9.456;2022-07-29T07:11:40;21.80;99.90
18384;DHT22;9318;48.644;9.456;2022-07-29T07:14:07;21.90;99.90
18384;DHT22;9318;48.644;9.456;2022-07-29T07:16:34;22.00;99.90
18384;DHT22;9318;48.644;9.456;2022-07-29T07:19:03;22.10;99.90
18384;DHT22;9318;48.644;9.456;2022-07-29T07:21:30;22.20;99.90
18384;DHT22;9318;48.644;9.456;2022-07-29T07:23:59;22.30;99.90
18384;DHT22;9318;48.644;9.456;2022-07-29T07:26:27;22.40;99.90
18384;DHT22;9318;48.644;9.456;2022-07-29T07:28:54;22.50;99.90
18384;DHT22;9318;48.644;9.456;2022-07-29T07:31:21;22.60;99.90
18384;DHT22;9318;48.644;9.456;2022-07-29T07:33:49;22.80;99.90
18384;DHT22;9318;48.644;9.456;2022-07-29T07:36:18;22.90;99.90
18384;DHT22;9318;48.644;9.456;2022-07-29T07:38:46;22.90;99.90
18384;DHT22;9318;48.644;9.456;2022-07-29T07:41:13;23.00;99.90
18384;DHT22;9318;48.644;9.456;2022-07-29T07:43:40;22.90;99.90
18384;DHT22;9318;48.644;9.456;2022-07-29T07:46:08;22.90;99.90
18384;DHT22;9318;48.644;9.456;2022-07-29T07:48:35;22.80;99.90
18384;DHT22;9318;48.644;9.456;2022-07-29T07:51:02;22.70;99.90
18384;DHT22;9318;48.644;9.456;2022-07-29T07:53:31;22.70;99.90
18384;DHT22;9318;48.644;9.456;2022-07-29T07:55:58;22.70;99.90
18384;DHT22;9318;48.644;9.456;2022-07-29T07:58:26;22.80;99.90
18384;DHT22;9318;48.644;9.456;2022-07-29T08:00:53;22.80;99.90
18384;DHT22;9318;48.644;9.456;2022-07-29T08:03:20;22.90;99.90
18384;DHT22;9318;48.644;9.456;2022-07-29T08:05:48;23.00;99.90
18384;DHT22;9318;48.644;9.456;2022-07-29T08:08:16;23.00;99.90
18384;DHT22;9318;48.644;9.456;2022-07-29T08:10:45;23.10;99.90
18384;DHT22;9318;48.644;9.456;2022-07-29T08:13:23;23.10;99.90
18384;DHT22;9318;48.644;9.456;2022-07-29T08:15:54;23.10;99.90
18384;DHT22;9318;48.644;9.456;2022-07-29T08:18:26;23.00;99.90
18384;DHT22;9318;48.644;9.456;2022-07-29T08:20:53;23.10;99.90
18384;DHT22;9318;48.644;9.456;2022-07-29T08:23:21;23.20;99.90
18384;DHT22;9318;48.644;9.456;2022-07-29T08:25:49;23.30;99.90
18384;DHT22;9318;48.644;9.456;2022-07-29T08:28:17;23.40;99.90
18384;DHT22;9318;48.644;9.456;2022-07-29T08:30:45;23.50;99.90
18384;DHT22;9318;48.644;9.456;2022-07-29T08:33:12;23.50;99.90
18384;DHT22;9318;48.644;9.456;2022-07-29T08:35:39;23.60;99.90
18384;DHT22;9318;48.644;9.456;2022-07-29T08:38:07;23.60;99.90
18384;DHT22;9318;48.644;9.456;2022-07-29T08:40:34;23.80;99.90
18384;DHT22;9318;48.644;9.456;2022-07-29T08:43:07;23.80;99.90
18384;DHT22;9318;48.644;9.456;2022-07-29T08:45:42;23.80;99.90
18384;DHT22;9318;48.644;9.456;2022-07-29T08:48:11;23.80;99.90
18384;DHT22;9318;48.644;9.456;2022-07-29T08:50:39;23.80;99.90
18384;DHT22;9318;48.644;9.456;2022-07-29T08:53:11;23.90;99.90
18384;DHT22;9318;48.644;9.456;2022-07-29T08:55:39;24.00;99.90
18384;DHT22;9318;48.644;9.456;2022-07-29T08:58:09;24.10;99.90
18384;DHT22;9318;48.644;9.456;2022-07-29T09:00:37;24.20;99.90
18384;DHT22;9318;48.644;9.456;2022-07-29T09:03:08;24.30;99.90
18384;DHT22;9318;48.644;9.456;2022-07-29T09:05:36;24.30;99.90
18384;DHT22;9318;48.644;9.456;2022-07-29T09:08:04;24.40;99.90
18384;DHT22;9318;48.644;9.456;2022-07-29T09:10:32;24.50;99.90
18384;DHT22;9318;48.644;9.456;2022-07-29T09:12:59;24.60;99.90
18384;DHT22;9318;48.644;9.456;2022-07-29T09:15:28;24.60;99.90
18384;DHT22;9318;48.644;9.456;2022-07-29T09:17:55;24.70;99.90
18384;DHT22;9318;48.644;9.456;2022-07-29T09:20:24;24.80;99.90
18384;DHT22;9318;48.644;9.456;2022-07-29T09:22:52;25.00;99.90
18384;DHT22;9318;48.644;9.456;2022-07-29T09:25:32;25.00;99.90
18384;DHT22;9318;48.644;9.456;2022-07-29T09:28:06;25.00;99.90
18384;DHT22;9318;48.644;9.456;2022-07-29T09:30:36;25.10;99.90
18384;DHT22;9318;48.644;9.456;2022-07-29T09:33:06;25.30;99.90
18384;DHT22;9318;48.644;9.456;2022-07-29T09:35:33;25.40;99.90
18384;DHT22;9318;48.644;9.456;2022-07-29T09:38:10;25.60;99.90
18384;DHT22;9318;48.644;9.456;2022-07-29T09:40:38;25.70;99.90
18384;DHT22;9318;48.644;9.456;2022-07-29T09:43:12;25.80;99.90
18384;DHT22;9318;48.644;9.456;2022-07-29T09:45:41;26.20;99.90
18384;DHT22;9318;48.644;9.456;2022-07-29T09:48:16;26.30;99.90
18384;DHT22;9318;48.644;9.456;2022-07-29T09:50:44;26.60;99.90
18384;DHT22;9318;48.644;9.456;2022-07-29T09:53:30;26.90;99.90
18384;DHT22;9318;48.644;9.456;2022-07-29T09:55:58;27.30;99.90
18384;DHT22;9318;48.644;9.456;2022-07-29T09:58:25;27.40;99.90
18384;DHT22;9318;48.644;9.456;2022-07-29T10:00:55;27.70;99.90
18384;DHT22;9318;48.644;9.456;2022-07-29T10:03:22;27.80;99.90
18384;DHT22;9318;48.644;9.456;2022-07-29T10:06:05;27.90;99.90
18384;DHT22;9318;48.644;9.456;2022-07-29T10:08:32;27.90;99.90
18384;DHT22;9318;48.644;9.456;2022-07-29T10:11:09;28.00;99.90
18384;DHT22;9318;48.644;9.456;2022-07-29T10:13:38;28.30;99.90
18384;DHT22;9318;48.644;9.456;2022-07-29T10:16:07;28.30;99.90
18384;DHT22;9318;48.644;9.456;2022-07-29T10:18:36;28.40;99.90
18384;DHT22;9318;48.644;9.456;2022-07-29T10:21:05;28.70;99.90
18384;DHT22;9318;48.644;9.456;2022-07-29T10:23:34;28.70;99.90
18384;DHT22;9318;48.644;9.456;2022-07-29T10:26:03;29.10;99.90
18384;DHT22;9318;48.644;9.456;2022-07-29T10:28:30;29.60;98.10
18384;DHT22;9318;48.644;9.456;2022-07-29T10:31:02;30.40;97.60
18384;DHT22;9318;48.644;9.456;2022-07-29T10:33:43;31.10;96.10
18384;DHT22;9318;48.644;9.456;2022-07-29T10:36:24;31.30;93.50
18384;DHT22;9318;48.644;9.456;2022-07-29T10:39:02;31.60;93.30
18384;DHT22;9318;48.644;9.456;2022-07-29T10:41:42;31.10;91.20
18384;DHT22;9318;48.644;9.456;2022-07-29T10:44:18;30.70;92.00
18384;DHT22;9318;48.644;9.456;2022-07-29T10:46:46;30.40;93.10
18384;DHT22;9318;48.644;9.456;2022-07-29T10:49:16;30.10;93.60
18384;DHT22;9318;48.644;9.456;2022-07-29T10:51:58;29.60;94.10
18384;DHT22;9318;48.644;9.456;2022-07-29T10:54:45;29.40;94.10
18384;DHT22;9318;48.644;9.456;2022-07-29T10:57:18;28.90;94.60
18384;DHT22;9318;48.644;9.456;2022-07-29T10:59:47;28.70;95.20
18384;DHT22;9318;48.644;9.456;2022-07-29T11:02:43;28.50;96.00
18384;DHT22;9318;48.644;9.456;2022-07-29T11:05:13;28.30;96.00
18384;DHT22;9318;48.644;9.456;2022-07-29T11:08:18;28.10;96.70
18384;DHT22;9318;48.644;9.456;2022-07-29T11:10:48;28.00;96.80
18384;DHT22;9318;48.644;9.456;2022-07-29T11:13:48;28.00;97.80
18384;DHT22;9318;48.644;9.456;2022-07-29T11:16:16;27.90;97.20
18384;DHT22;9318;48.644;9.456;2022-07-29T11:19:21;27.90;97.40
18384;DHT22;9318;48.644;9.456;2022-07-29T11:21:50;27.80;97.50
18384;DHT22;9318;48.644;9.456;2022-07-29T11:24:20;27.60;97.80
18384;DHT22;9318;48.644;9.456;2022-07-29T11:27:11;27.40;97.80
18384;DHT22;9318;48.644;9.456;2022-07-29T11:29:46;27.30;98.50
18384;DHT22;9318;48.644;9.456;2022-07-29T11:32:15;27.10;98.10
18384;DHT22;9318;48.644;9.456;2022-07-29T11:34:45;27.00;98.80
18384;DHT22;9318;48.644;9.456;2022-07-29T11:37:21;27.00;98.80
18384;DHT22;9318;48.644;9.456;2022-07-29T11:40:09;27.10;98.90
18384;DHT22;9318;48.644;9.456;2022-07-29T11:42:47;27.10;98.90
18384;DHT22;9318;48.644;9.456;2022-07-29T11:45:25;27.10;99.00
18384;DHT22;9318;48.644;9.456;2022-07-29T11:47:58;27.10;99.30
18384;DHT22;9318;48.644;9.456;2022-07-29T11:50:32;26.90;95.60
18384;DHT22;9318;48.644;9.456;2022-07-29T11:53:02;26.80;96.20
18384;DHT22;9318;48.644;9.456;2022-07-29T11:55:30;26.80;95.70
18384;DHT22;9318;48.644;9.456;2022-07-29T11:58:01;26.60;96.10
18384;DHT22;9318;48.644;9.456;2022-07-29T12:00:31;26.60;96.10
18384;DHT22;9318;48.644;9.456;2022-07-29T12:03:01;26.40;95.30
18384;DHT22;9318;48.644;9.456;2022-07-29T12:05:37;26.20;96.10
18384;DHT22;9318;48.644;9.456;2022-07-29T12:08:14;26.00;97.00
18384;DHT22;9318;48.644;9.456;2022-07-29T12:10:42;25.80;97.80
18384;DHT22;9318;48.644;9.456;2022-07-29T12:13:10;25.60;98.70
18384;DHT22;9318;48.644;9.456;2022-07-29T12:15:38;25.40;99.20
18384;DHT22;9318;48.644;9.456;2022-07-29T12:18:13;25.20;99.90
18384;DHT22;9318;48.644;9.456;2022-07-29T12:20:40;24.90;99.90
18384;DHT22;9318;48.644;9.456;2022-07-29T12:23:09;24.60;99.90
18384;DHT22;9318;48.644;9.456;2022-07-29T12:25:40;24.50;99.90
18384;DHT22;9318;48.644;9.456;2022-07-29T12:28:09;24.40;99.90
18384;DHT22;9318;48.644;9.456;2022-07-29T12:30:42;24.60;99.90
18384;DHT22;9318;48.644;9.456;2022-07-29T12:33:16;25.00;99.90
18384;DHT22;9318;48.644;9.456;2022-07-29T12:35:46;25.80;99.90
18384;DHT22;9318;48.644;9.456;2022-07-29T12:38:14;26.50;99.90
18384;DHT22;9318;48.644;9.456;2022-07-29T12:40:44;27.10;99.90
18384;DHT22;9318;48.644;9.456;2022-07-29T12:43:13;27.60;99.90
18384;DHT22;9318;48.644;9.456;2022-07-29T12:45:46;27.80;99.90
18384;DHT22;9318;48.644;9.456;2022-07-29T12:48:14;27.70;99.90
18384;DHT22;9318;48.644;9.456;2022-07-29T12:50:56;27.50;99.90
18384;DHT22;9318;48.644;9.456;2022-07-29T12:53:24;27.10;99.90
18384;DHT22;9318;48.644;9.456;2022-07-29T12:55:55;26.80;99.90
18384;DHT22;9318;48.644;9.456;2022-07-29T12:58:30;26.30;99.90
18384;DHT22;9318;48.644;9.456;2022-07-29T13:01:09;25.60;99.90
18384;DHT22;9318;48.644;9.456;2022-07-29T13:03:51;25.40;99.90
18384;DHT22;9318;48.644;9.456;2022-07-29T13:06:34;25.10;99.90
18384;DHT22;9318;48.644;9.456;2022-07-29T13:09:05;24.80;99.90
18384;DHT22;9318;48.644;9.456;2022-07-29T13:11:35;24.60;99.90
18384;DHT22;9318;48.644;9.456;2022-07-29T13:14:02;24.40;99.90
18384;DHT22;9318;48.644;9.456;2022-07-29T13:16:30;24.30;99.90
18384;DHT22;9318;48.644;9.456;2022-07-29T13:19:05;24.10;99.90
18384;DHT22;9318;48.644;9.456;2022-07-29T13:21:33;24.00;99.90
18384;DHT22;9318;48.644;9.456;2022-07-29T13:24:00;23.90;99.90
18384;DHT22;9318;48.644;9.456;2022-07-29T13:26:27;23.90;99.90
18384;DHT22;9318;48.644;9.456;2022-07-29T13:28:56;23.90;99.90
18384;DHT22;9318;48.644;9.456;2022-07-29T13:31:24;23.90;99.90
18384;DHT22;9318;48.644;9.456;2022-07-29T13:33:51;24.10;99.90
18384;DHT22;9318;48.644;9.456;2022-07-29T13:36:18;24.20;99.90
18384;DHT22;9318;48.644;9.456;2022-07-29T13:38:46;24.30;99.90
18384;DHT22;9318;48.644;9.456;2022-07-29T13:41:13;24.50;99.90
18384;DHT22;9318;48.644;9.456;2022-07-29T13:43:40;24.70;99.90
18384;DHT22;9318;48.644;9.456;2022-07-29T13:46:09;24.90;99.90
18384;DHT22;9318;48.644;9.456;2022-07-29T13:48:36;25.20;99.90
18384;DHT22;9318;48.644;9.456;2022-07-29T13:51:04;25.30;99.90
18384;DHT22;9318;48.644;9.456;2022-07-29T13:53:31;25.50;99.90
18384;DHT22;9318;48.644;9.456;2022-07-29T13:55:58;25.50;99.90
18384;DHT22;9318;48.644;9.456;2022-07-29T13:58:25;25.30;99.90
18384;DHT22;9318;48.644;9.456;2022-07-29T14:00:53;25.10;99.90
18384;DHT22;9318;48.644;9.456;2022-07-29T14:03:22;24.90;99.90
18384;DHT22;9318;48.644;9.456;2022-07-29T14:05:50;24.80;99.90
18384;DHT22;9318;48.644;9.456;2022-07-29T14:08:17;24.40;99.90
18384;DHT22;9318;48.644;9.456;2022-07-29T14:10:45;24.30;99.90
18384;DHT22;9318;48.644;9.456;2022-07-29T14:13:12;24.20;99.90
18384;DHT22;9318;48.644;9.456;2022-07-29T14:15:39;24.00;99.90
18384;DHT22;9318;48.644;9.456;2022-07-29T14:18:07;23.90;99.90
18384;DHT22;9318;48.644;9.456;2022-07-29T14:20:36;23.90;99.90
18384;DHT22;9318;48.644;9.456;2022-07-29T14:23:03;23.80;99.90
18384;DHT22;9318;48.644;9.456;2022-07-29T14:25:31;23.70;99.90
18384;DHT22;9318;48.644;9.456;2022-07-29T14:27:58;23.70;99.90
18384;DHT22;9318;48.644;9.456;2022-07-29T14:30:25;23.70;99.90
18384;DHT22;9318;48.644;9.456;2022-07-29T14:32:53;23.70;99.90
18384;DHT22;9318;48.644;9.456;2022-07-29T14:35:20;23.70;99.90
18384;DHT22;9318;48.644;9.456;2022-07-29T14:37:49;23.60;99.90
18384;DHT22;9318;48.644;9.456;2022-07-29T14:40:16;23.50;99.90
18384;DHT22;9318;48.644;9.456;2022-07-29T14:42:43;23.40;99.90
18384;DHT22;9318;48.644;9.456;2022-07-29T14:45:11;23.30;99.90
18384;DHT22;9318;48.644;9.456;2022-07-29T14:47:38;23.30;99.90
18384;DHT22;9318;48.644;9.456;2022-07-29T14:50:07;23.30;99.90
18384;DHT22;9318;48.644;9.456;2022-07-29T14:52:35;23.30;99.90
18384;DHT22;9318;48.644;9.456;2022-07-29T14:55:04;23.30;99.90
18384;DHT22;9318;48.644;9.456;2022-07-29T14:57:32;23.30;99.90
18384;DHT22;9318;48.644;9.456;2022-07-29T14:59:59;23.30;99.90
18384;DHT22;9318;48.644;9.456;2022-07-29T15:02:27;23.40;99.90
18384;DHT22;9318;48.644;9.456;2022-07-29T15:04:54;23.40;99.90
18384;DHT22;9318;48.644;9.456;2022-07-29T15:07:22;23.50;99.90
18384;DHT22;9318;48.644;9.456;2022-07-29T15:09:49;23.50;99.90
18384;DHT22;9318;48.644;9.456;2022-07-29T15:12:18;23.40;99.90
18384;DHT22;9318;48.644;9.456;2022-07-29T15:14:46;23.30;99.90
18384;DHT22;9318;48.644;9.456;2022-07-29T15:17:13;23.40;99.90
18384;DHT22;9318;48.644;9.456;2022-07-29T15:19:41;23.40;99.90
18384;DHT22;9318;48.644;9.456;2022-07-29T15:22:08;23.50;99.90
18384;DHT22;9318;48.644;9.456;2022-07-29T15:24:35;23.50;99.90
18384;DHT22;9318;48.644;9.456;2022-07-29T15:27:02;23.50;99.90
18384;DHT22;9318;48.644;9.456;2022-07-29T15:29:31;23.40;99.90
18384;DHT22;9318;48.644;9.456;2022-07-29T15:31:59;23.40;99.90
18384;DHT22;9318;48.644;9.456;2022-07-29T15:34:26;23.50;99.90
18384;DHT22;9318;48.644;9.456;2022-07-29T15:36:53;23.50;99.90
18384;DHT22;9318;48.644;9.456;2022-07-29T15:39:21;23.60;99.90
18384;DHT22;9318;48.644;9.456;2022-07-29T15:41:49;23.50;99.90
18384;DHT22;9318;48.644;9.456;2022-07-29T15:44:17;23.50;99.90
18384;DHT22;9318;48.644;9.456;2022-07-29T15:46:46;23.60;99.90
18384;DHT22;9318;48.644;9.456;2022-07-29T15:49:32;23.50;99.90
18384;DHT22;9318;48.644;9.456;2022-07-29T15:52:00;23.50;99.90
18384;DHT22;9318;48.644;9.456;2022-07-29T15:54:28;23.50;99.90
18384;DHT22;9318;48.644;9.456;2022-07-29T15:56:56;23.40;99.90
18384;DHT22;9318;48.644;9.456;2022-07-29T15:59:23;23.40;99.90
18384;DHT22;9318;48.644;9.456;2022-07-29T16:01:52;23.40;99.90